SÍGUENOS

APP INUMET

Disponible en Google Play

Productos aeronáuticos

  • SIGMET
  • METAR / SPECI
  • TAF
  • AIREP
  • Aviso de aeródromo
  • Pronárea
  • Carta superficie

Mensajes METAR de la última hora

SULS 210000Z 32015KT CAVOK 14/04 Q1015
SUMU 210000Z 35007KT CAVOK 11/05 Q1016 NOSIG

Mensajes METAR de la última hora - Internacionales


Argentina
SAAR 210000Z 27002KT CAVOK 08/04 Q1017
SABE 210000Z 28005KT 230V330 CAVOK 14/02 Q1016
SACO 210000Z 24006KT 5000 HZ NSC 09/M03 Q1018
SAEZ 210000Z 30006KT CAVOK 11/05 Q1016
SAME 210000Z 23004KT CAVOK 14/M03 Q1018
Bolivia
SLLP 210000Z 08007KT 9999 NSC 05/M03 Q1036
Brasil
SBBR 210000Z 00000KT CAVOK 21/08 Q1023
SBFI 210000Z 14003KT CAVOK 10/08 Q1020
SBFL 210000Z 01006KT CAVOK 16/14 Q1021
SBGR 210000Z 00000KT 5000 BR NSC 13/13 Q1024
SBPA 210000Z 07004KT 8000 NSC 10/08 Q1020
SBRJ 210000Z 09008KT CAVOK 21/18 Q1022
SBSP 210000Z VRB03KT 3500 BR SCT003 OVC005 14/12 Q1024
Colombia
SKBO 210000Z 26006KT 999 VCSH BKN020 14/11 A3036
Chile
SCCI 210000Z 31005KT 9999 FEW040 SCT100 02/01 Q1009 NOSIG
SCEL 210000Z 31003KT 270V020 CAVOK 12/05 Q1018 NOSIG
Ecuador
SEQM 210000Z 35013KT CAVOK 16/10 Q1025 NOSIG RMK A3027
EEUU
KMIA 202353Z 04003KT 10SM SCT027CB SCT055 BKN200 BKN300 30/22 A3005 RMK AO2 LTG DSNT NE SLP175 CB SE MOV E 60000 T03000222 10322 20289 56000 $
KDCA 202352Z 19007KT 10SM FEW060 BKN250 33/25 A2990 RMK AO2 SLP125 T03280250 10367 20328 56007
KIAD 202352Z 22003KT 10SM SCT070 BKN140 BKN250 31/21 A2991 RMK AO2 SLP124 T03110211 10339 20311 56007
KJFK 202351Z 25006KT 10SM FEW060 BKN170 BKN250 29/24 A2988 RMK AO2 SLP119 CB DSNT NW T02940239 10344 20283 53001
KLGA 202351Z 29009KT 10SM FEW060 SCT170 BKN250 33/20 A2987 RMK AO2 SLP115 CB DSNT NW MOV SE T03280200 10367 20322 53006
España
LEBL 210030Z 09007KT 060V130 9999 FEW030 24/20 Q1012 NOSIG
LEMD 210030Z 18005KT CAVOK 26/07 Q1011 NOSIG
LEBL 210000Z 08009KT 9999 FEW030 24/20 Q1012 NOSIG
LEMD 210000Z VRB01KT CAVOK 25/07 Q1011 NOSIG
Francia
LFPO 210030Z VRB02KT CAVOK 14/10 Q1014 NOSIG
LFPO 210000Z 00000KT CAVOK 13/08 Q1014 NOSIG
Inglaterra
EGLL 210020Z AUTO 20008KT 9999 NCD 14/10 Q1011
EGLL 202350Z AUTO 19007KT 9999 NCD 14/10 Q1011
Panamá
MPTO 210000Z 00000KT 9000 SCT018CB SCT100 27/26 Q1011 NOSIG
Paraguay
SGAS 210000Z 00000KT 6000 NSC 09/06 Q1018
Venezuela
SVMI 210000Z 05002KT 9999 FEW016 SCT100 29/22 Q1013

* Datos extraidos del Text DataServer de la NOAA (NOAA TEXT DATA SERVER)

Instituto Uruguayo de Meteorología

Dr. Javier Barrios Amorín 1488 - CP 11200
Mesa Central (598) 1895

Montevideo - Uruguay